Hauptseite
METAR-TAF:

METAR-TAF

Flughäfen :

Nouakchott, Mauretanien

Flughafen Nouakchott-Oumtounsy

Breite: 18-18-36N, Länge: 015-58-11W, Höhe: 3 m

Beobachtung

Neuester Wetterbericht von vor 18 Minuten, um 08:00 UTC
Wind 9 kt aus Nord
Temperatur 23°C
Luftfeuchtigkeit 73%
Luftdruck 1013 hPa
Sichtweite: 8000 m

METAR: GQNO 280800Z 36009KT 8000 NSC 23/18 Q1013 NOSIG

Zeit: 08:18 (08:18 UTC)

Prognose

Neuester Wetterbericht von vor 3 Stunden und 18 Minuten, um 05:00 UTC
Gültige Prognose vom 28 um 06 UTC bis 29 um 12 UTC
Wind 12 kt aus Nord/Nordwest
Sichtweite: 8000 m
Wahrscheinlichkeit 30% :
Zeitweise
vom 28 um 06 UTC bis 28 um 09 UTC
Sichtweite: 4000 m
Durchbrochene Bewölkung in der Höhe von 800 ft
feuchter Dunst

TAF: GQNO 280500Z 2806/2912 34012KT 8000 NSC PROB30 TEMPO 2806/2809 4000 BR BKN008

Wetterbeobachtungen und Prognosen von mehr als 4000 Flughäfen (METAR und TAF Bericht).

Die verfügbaren Stationen werden durch gelbe und rote Markierungen auf der Karte dargestellt.

Führen Sie die Maus auf sie, um den Namen der Station zu sehen.

Darauf klicken, um die Beobachtung von Wetterbeobachtungen und Prognosen zu sehen.

Um die Karte zu ändern : klicken Sie auf den grünen Tasten mit einem schwarzen Kreuz Zum Vergrößern, auf den grünen Button mit einem Gedankenstrich zu verkleinern, oder auf die grünen Pfeile für benachbarte Karten.


METAR-TAF: